SWA1640 KAUS-KDAB
Flight info
| Callsign | SWA1640 |
|---|---|
| Flight time | 2h 2m |
| Altitude | 41000 |
| Route | ILEXY4 ZENZI IAH J2 DEFUN SZW TTHOR TTHOR3 |
| Aircraft | B736/M-SDE2E3FGHIRWXY/LB1 |
Departure
| Time | 2026-04-25 06:45 |
|---|---|
| Airport | Austin Bergstrom International Airport (KAUS) |
Arrival
| Time | 2026-04-25 08:48 |
|---|---|
| Airport | Daytona Beach International Airport (KDAB) |
| Time | Latitude | Longitude | Altitude | Speed | Heading |
|---|---|---|---|---|---|
| 2026-04-25 06:24 | 30.20133 | -97.66763 | 511 ft | 0 kts | 16° |
| 2026-04-25 06:36 | 30.20132 | -97.66763 | 511 ft | 1 kts | 16° |
| 2026-04-25 06:36 | 30.20117 | -97.66769 | 511 ft | 3 kts | 20° |
| 2026-04-25 06:36 | 30.20098 | -97.66778 | 511 ft | 3 kts | 28° |
| 2026-04-25 06:36 | 30.20081 | -97.66790 | 511 ft | 3 kts | 47° |
| 2026-04-25 06:37 | 30.20072 | -97.66806 | 511 ft | 3 kts | 89° |
| 2026-04-25 06:37 | 30.20072 | -97.66814 | 511 ft | 0 kts | 103° |
| 2026-04-25 06:39 | 30.20072 | -97.66813 | 511 ft | 1 kts | 103° |
| 2026-04-25 06:39 | 30.20068 | -97.66795 | 511 ft | 5 kts | 101° |
| 2026-04-25 06:40 | 30.20062 | -97.66737 | 510 ft | 10 kts | 97° |
| 2026-04-25 06:40 | 30.20005 | -97.66690 | 509 ft | 13 kts | 178° |
| 2026-04-25 06:40 | 30.19920 | -97.66668 | 507 ft | 13 kts | 135° |
| 2026-04-25 06:40 | 30.19908 | -97.66568 | 505 ft | 13 kts | 85° |
| 2026-04-25 06:41 | 30.19911 | -97.66464 | 503 ft | 13 kts | 89° |
| 2026-04-25 06:41 | 30.19913 | -97.66347 | 499 ft | 16 kts | 89° |
| 2026-04-25 06:41 | 30.19916 | -97.66197 | 493 ft | 21 kts | 89° |
| 2026-04-25 06:41 | 30.19922 | -97.66034 | 482 ft | 13 kts | 79° |
| 2026-04-25 06:42 | 30.20000 | -97.65992 | 483 ft | 14 kts | 359° |
| 2026-04-25 06:42 | 30.20095 | -97.65994 | 481 ft | 13 kts | 358° |
| 2026-04-25 06:42 | 30.20186 | -97.65996 | 481 ft | 13 kts | 358° |
| 2026-04-25 06:42 | 30.20284 | -97.66001 | 483 ft | 15 kts | 358° |
| 2026-04-25 06:43 | 30.20369 | -97.65943 | 477 ft | 17 kts | 87° |
| 2026-04-25 06:43 | 30.20370 | -97.65907 | 480 ft | 0 kts | 88° |
| 2026-04-25 06:44 | 30.20371 | -97.65878 | 480 ft | 12 kts | 88° |
| 2026-04-25 06:44 | 30.20329 | -97.65789 | 479 ft | 19 kts | 168° |
| 2026-04-25 06:44 | 30.20036 | -97.65781 | 479 ft | 75 kts | 179° |
| 2026-04-25 06:45 | 30.19285 | -97.65767 | 510 ft | 136 kts | 179° |
| 2026-04-25 06:45 | 30.18250 | -97.65716 | 891 ft | 158 kts | 178° |
| 2026-04-25 06:45 | 30.17104 | -97.65663 | 1515 ft | 169 kts | 178° |
| 2026-04-25 06:45 | 30.15912 | -97.65627 | 2211 ft | 173 kts | 177° |
| 2026-04-25 06:46 | 30.14698 | -97.65148 | 2626 ft | 205 kts | 146° |
| 2026-04-25 06:46 | 30.13792 | -97.63719 | 2866 ft | 240 kts | 111° |
| 2026-04-25 06:46 | 30.13636 | -97.61751 | 3422 ft | 254 kts | 82° |
| 2026-04-25 06:46 | 30.14347 | -97.59860 | 4091 ft | 265 kts | 60° |
| 2026-04-25 06:47 | 30.15344 | -97.58003 | 4761 ft | 276 kts | 57° |
| 2026-04-25 06:47 | 30.16393 | -97.56124 | 5609 ft | 281 kts | 55° |
| 2026-04-25 06:47 | 30.17466 | -97.54211 | 6430 ft | 287 kts | 54° |
| 2026-04-25 06:47 | 30.18555 | -97.52257 | 7287 ft | 292 kts | 55° |
| 2026-04-25 06:48 | 30.19664 | -97.50257 | 8136 ft | 299 kts | 56° |
| 2026-04-25 06:48 | 30.20408 | -97.48909 | 8724 ft | 303 kts | 56° |
| 2026-04-25 06:48 | 30.21547 | -97.46836 | 9729 ft | 308 kts | 56° |
| 2026-04-25 06:48 | 30.22709 | -97.44716 | 10546 ft | 321 kts | 56° |
| 2026-04-25 06:49 | 30.23954 | -97.42443 | 10965 ft | 346 kts | 56° |
| 2026-04-25 06:49 | 30.25256 | -97.40059 | 11765 ft | 355 kts | 56° |
| 2026-04-25 06:49 | 30.26583 | -97.37624 | 12737 ft | 359 kts | 56° |
| 2026-04-25 06:49 | 30.27923 | -97.35163 | 13718 ft | 364 kts | 56° |
| 2026-04-25 06:50 | 30.29283 | -97.32665 | 14589 ft | 369 kts | 56° |
| 2026-04-25 06:50 | 30.30662 | -97.30131 | 15493 ft | 375 kts | 56° |
| 2026-04-25 06:50 | 30.32058 | -97.27564 | 16416 ft | 380 kts | 56° |
| 2026-04-25 06:50 | 30.33475 | -97.24958 | 17320 ft | 385 kts | 56° |
| 2026-04-25 06:51 | 30.34826 | -97.22245 | 18184 ft | 394 kts | 64° |
| 2026-04-25 06:51 | 30.35656 | -97.19197 | 18951 ft | 402 kts | 78° |
| 2026-04-25 06:51 | 30.35866 | -97.15947 | 19740 ft | 409 kts | 92° |
| 2026-04-25 06:51 | 30.35650 | -97.12646 | 20532 ft | 414 kts | 95° |
| 2026-04-25 06:52 | 30.35394 | -97.09300 | 21272 ft | 421 kts | 95° |
| 2026-04-25 06:52 | 30.35160 | -97.05942 | 21993 ft | 427 kts | 94° |
| 2026-04-25 06:52 | 30.34946 | -97.02486 | 22735 ft | 434 kts | 94° |
| 2026-04-25 06:52 | 30.34742 | -96.98978 | 23451 ft | 440 kts | 93° |
| 2026-04-25 06:53 | 30.34538 | -96.95424 | 24069 ft | 445 kts | 93° |
| 2026-04-25 06:53 | 30.34330 | -96.91829 | 24709 ft | 450 kts | 93° |
| 2026-04-25 06:53 | 30.34116 | -96.88191 | 25358 ft | 455 kts | 93° |
| 2026-04-25 06:53 | 30.33897 | -96.84518 | 25980 ft | 460 kts | 93° |
| 2026-04-25 06:54 | 30.33674 | -96.80804 | 26610 ft | 465 kts | 93° |
| 2026-04-25 06:54 | 30.33444 | -96.77055 | 27173 ft | 469 kts | 93° |
| 2026-04-25 06:54 | 30.33209 | -96.73266 | 27753 ft | 475 kts | 93° |
| 2026-04-25 06:54 | 30.32970 | -96.69436 | 28320 ft | 480 kts | 93° |
| 2026-04-25 06:55 | 30.32727 | -96.65561 | 28856 ft | 485 kts | 93° |
| 2026-04-25 06:55 | 30.32482 | -96.61649 | 29410 ft | 490 kts | 93° |
| 2026-04-25 06:55 | 30.32234 | -96.57704 | 29914 ft | 494 kts | 93° |
| 2026-04-25 06:55 | 30.31981 | -96.53713 | 30353 ft | 499 kts | 93° |
| 2026-04-25 06:56 | 30.31726 | -96.49691 | 30780 ft | 504 kts | 93° |
| 2026-04-25 06:56 | 30.31468 | -96.45623 | 31196 ft | 508 kts | 93° |
| 2026-04-25 06:56 | 30.31210 | -96.41529 | 31604 ft | 513 kts | 93° |
| 2026-04-25 06:56 | 30.30948 | -96.37397 | 31971 ft | 517 kts | 93° |
| 2026-04-25 06:57 | 30.30683 | -96.33236 | 32323 ft | 521 kts | 93° |
| 2026-04-25 06:57 | 30.30414 | -96.29039 | 32657 ft | 525 kts | 93° |
| 2026-04-25 06:57 | 30.30142 | -96.24811 | 32984 ft | 529 kts | 93° |
| 2026-04-25 06:57 | 30.29867 | -96.20565 | 33373 ft | 530 kts | 93° |
| 2026-04-25 06:58 | 30.29590 | -96.16312 | 33798 ft | 530 kts | 93° |
| 2026-04-25 06:58 | 30.29313 | -96.12067 | 34188 ft | 529 kts | 94° |
| 2026-04-25 06:58 | 30.28809 | -96.07853 | 34598 ft | 530 kts | 103° |
| 2026-04-25 06:58 | 30.27813 | -96.03757 | 35015 ft | 528 kts | 111° |
| 2026-04-25 06:59 | 30.26352 | -95.99883 | 35411 ft | 524 kts | 120° |
| 2026-04-25 06:59 | 30.24619 | -95.96173 | 35675 ft | 526 kts | 122° |
| 2026-04-25 06:59 | 30.22837 | -95.92465 | 35953 ft | 529 kts | 122° |
| 2026-04-25 06:59 | 30.21049 | -95.88748 | 36305 ft | 529 kts | 122° |
| 2026-04-25 07:00 | 30.19281 | -95.85030 | 36724 ft | 527 kts | 122° |
| 2026-04-25 07:00 | 30.17529 | -95.81305 | 37100 ft | 527 kts | 121° |
| 2026-04-25 07:00 | 30.15790 | -95.77577 | 37488 ft | 528 kts | 121° |
| 2026-04-25 07:00 | 30.14096 | -95.73934 | 37787 ft | 528 kts | 121° |
| 2026-04-25 07:01 | 30.12359 | -95.70195 | 38141 ft | 528 kts | 121° |
| 2026-04-25 07:01 | 30.10623 | -95.66463 | 38508 ft | 527 kts | 121° |
| 2026-04-25 07:01 | 30.08889 | -95.62741 | 38856 ft | 525 kts | 121° |
| 2026-04-25 07:01 | 30.07157 | -95.59032 | 39216 ft | 525 kts | 121° |
| 2026-04-25 07:02 | 30.05426 | -95.55333 | 39503 ft | 524 kts | 121° |
| 2026-04-25 07:02 | 30.03695 | -95.51634 | 39781 ft | 523 kts | 121° |
| 2026-04-25 07:02 | 30.01966 | -95.47945 | 40074 ft | 522 kts | 121° |
| 2026-04-25 07:02 | 30.00243 | -95.44268 | 40409 ft | 520 kts | 121° |
| 2026-04-25 07:03 | 29.98529 | -95.40602 | 40638 ft | 520 kts | 119° |
| 2026-04-25 07:03 | 29.97149 | -95.36738 | 40833 ft | 524 kts | 107° |
| 2026-04-25 07:03 | 29.96351 | -95.32630 | 40839 ft | 527 kts | 97° |
| 2026-04-25 07:03 | 29.96120 | -95.28420 | 40843 ft | 525 kts | 85° |
| 2026-04-25 07:04 | 29.96433 | -95.24252 | 40855 ft | 520 kts | 81° |
| 2026-04-25 07:04 | 29.97274 | -95.16024 | 40836 ft | 515 kts | 80° |
| 2026-04-25 07:05 | 29.98087 | -95.07897 | 40839 ft | 513 kts | 81° |
| 2026-04-25 07:05 | 29.98838 | -94.99730 | 40841 ft | 511 kts | 81° |
| 2026-04-25 07:06 | 29.99556 | -94.91568 | 40848 ft | 511 kts | 81° |
| 2026-04-25 07:06 | 30.00264 | -94.83416 | 40846 ft | 511 kts | 81° |
| 2026-04-25 07:07 | 30.00973 | -94.75247 | 40848 ft | 512 kts | 81° |
| 2026-04-25 07:07 | 30.01680 | -94.67062 | 40849 ft | 513 kts | 81° |
| 2026-04-25 07:08 | 30.02384 | -94.58854 | 40851 ft | 514 kts | 81° |
| 2026-04-25 07:08 | 30.03084 | -94.50630 | 40857 ft | 515 kts | 81° |
| 2026-04-25 07:09 | 30.03780 | -94.42394 | 40853 ft | 516 kts | 81° |
| 2026-04-25 07:09 | 30.04471 | -94.34146 | 40867 ft | 516 kts | 82° |
| 2026-04-25 07:10 | 30.05157 | -94.25899 | 40857 ft | 516 kts | 82° |
| 2026-04-25 07:10 | 30.05837 | -94.17657 | 40868 ft | 515 kts | 82° |
| 2026-04-25 07:11 | 30.06510 | -94.09439 | 40857 ft | 514 kts | 82° |
| 2026-04-25 07:11 | 30.07176 | -94.01239 | 40857 ft | 512 kts | 82° |
| 2026-04-25 07:12 | 30.07832 | -93.93116 | 40885 ft | 511 kts | 82° |
| 2026-04-25 07:12 | 30.08809 | -93.80878 | 40895 ft | 510 kts | 82° |
| 2026-04-25 07:13 | 30.09453 | -93.72737 | 40859 ft | 509 kts | 82° |
| 2026-04-25 07:13 | 30.10091 | -93.64608 | 40866 ft | 508 kts | 82° |
| 2026-04-25 07:14 | 30.10724 | -93.56483 | 40872 ft | 508 kts | 82° |
| 2026-04-25 07:14 | 30.11351 | -93.48366 | 40879 ft | 508 kts | 82° |
| 2026-04-25 07:15 | 30.11973 | -93.40239 | 40881 ft | 508 kts | 82° |
| 2026-04-25 07:15 | 30.12591 | -93.32110 | 40880 ft | 508 kts | 82° |
| 2026-04-25 07:16 | 30.13204 | -93.23972 | 40880 ft | 509 kts | 82° |
| 2026-04-25 07:16 | 30.13813 | -93.15820 | 40871 ft | 509 kts | 82° |
| 2026-04-25 07:17 | 30.14620 | -93.07702 | 40876 ft | 507 kts | 75° |
| 2026-04-25 07:17 | 30.16164 | -92.99772 | 40881 ft | 506 kts | 73° |
| 2026-04-25 07:18 | 30.17823 | -92.91861 | 40877 ft | 507 kts | 73° |
| 2026-04-25 07:18 | 30.19426 | -92.83924 | 40878 ft | 507 kts | 73° |
| 2026-04-25 07:19 | 30.20980 | -92.75964 | 40875 ft | 508 kts | 74° |
| 2026-04-25 07:19 | 30.22518 | -92.67988 | 40876 ft | 508 kts | 74° |
| 2026-04-25 07:20 | 30.24053 | -92.60015 | 40881 ft | 508 kts | 74° |
| 2026-04-25 07:20 | 30.25585 | -92.52039 | 40879 ft | 508 kts | 74° |
| 2026-04-25 07:21 | 30.27103 | -92.44119 | 40878 ft | 508 kts | 74° |
| 2026-04-25 07:21 | 30.28626 | -92.36148 | 40880 ft | 507 kts | 74° |
| 2026-04-25 07:22 | 30.30141 | -92.28184 | 40882 ft | 507 kts | 75° |
| 2026-04-25 07:22 | 30.31651 | -92.20225 | 40877 ft | 506 kts | 75° |
| 2026-04-25 07:23 | 30.33154 | -92.12270 | 40872 ft | 505 kts | 75° |
| 2026-04-25 07:23 | 30.34649 | -92.04331 | 40875 ft | 505 kts | 75° |
| 2026-04-25 07:24 | 30.36138 | -91.96395 | 40874 ft | 504 kts | 75° |
| 2026-04-25 07:24 | 30.37622 | -91.88458 | 40890 ft | 504 kts | 75° |
| 2026-04-25 07:25 | 30.39099 | -91.80534 | 40894 ft | 504 kts | 75° |
| 2026-04-25 07:25 | 30.40571 | -91.72606 | 40878 ft | 503 kts | 75° |
| 2026-04-25 07:26 | 30.42037 | -91.64683 | 40873 ft | 503 kts | 75° |
| 2026-04-25 07:26 | 30.43496 | -91.56763 | 40873 ft | 502 kts | 75° |
| 2026-04-25 07:27 | 30.44950 | -91.48849 | 40877 ft | 502 kts | 75° |
| 2026-04-25 07:27 | 30.46398 | -91.40940 | 40875 ft | 502 kts | 75° |
| 2026-04-25 07:28 | 30.47841 | -91.33029 | 40879 ft | 502 kts | 75° |
| 2026-04-25 07:28 | 30.49065 | -91.25068 | 40883 ft | 503 kts | 81° |
| 2026-04-25 07:29 | 30.49789 | -91.16999 | 40884 ft | 503 kts | 83° |
| 2026-04-25 07:29 | 30.50440 | -91.08912 | 40883 ft | 504 kts | 83° |
| 2026-04-25 07:30 | 30.51134 | -91.00869 | 40881 ft | 505 kts | 82° |
| 2026-04-25 07:30 | 30.51867 | -90.92767 | 40878 ft | 506 kts | 82° |
| 2026-04-25 07:31 | 30.52605 | -90.84652 | 40883 ft | 506 kts | 82° |
| 2026-04-25 07:31 | 30.53337 | -90.76532 | 40884 ft | 507 kts | 82° |
| 2026-04-25 07:32 | 30.54064 | -90.68391 | 40892 ft | 508 kts | 83° |
| 2026-04-25 07:32 | 30.54785 | -90.60237 | 40889 ft | 509 kts | 83° |
| 2026-04-25 07:33 | 30.55502 | -90.52067 | 40890 ft | 509 kts | 83° |
| 2026-04-25 07:33 | 30.56215 | -90.43891 | 40890 ft | 509 kts | 83° |
| 2026-04-25 07:34 | 30.56923 | -90.35714 | 40895 ft | 509 kts | 83° |
| 2026-04-25 07:34 | 30.57625 | -90.27535 | 40890 ft | 509 kts | 83° |
| 2026-04-25 07:35 | 30.58323 | -90.19359 | 40884 ft | 509 kts | 83° |
| 2026-04-25 07:35 | 30.59015 | -90.11183 | 40888 ft | 509 kts | 83° |
| 2026-04-25 07:36 | 30.59702 | -90.03008 | 40885 ft | 508 kts | 83° |
| 2026-04-25 07:36 | 30.60267 | -89.96224 | 40903 ft | 508 kts | 83° |
| 2026-04-25 07:37 | 30.60943 | -89.88066 | 40892 ft | 508 kts | 83° |
| 2026-04-25 07:37 | 30.61614 | -89.79914 | 40882 ft | 507 kts | 83° |
| 2026-04-25 07:38 | 30.62278 | -89.71768 | 40882 ft | 507 kts | 83° |
| 2026-04-25 07:38 | 30.62937 | -89.63627 | 40883 ft | 506 kts | 83° |
| 2026-04-25 07:39 | 30.63590 | -89.55492 | 40882 ft | 506 kts | 83° |
| 2026-04-25 07:39 | 30.64239 | -89.47354 | 40882 ft | 506 kts | 83° |
| 2026-04-25 07:40 | 30.64882 | -89.39218 | 40889 ft | 506 kts | 83° |
| 2026-04-25 07:40 | 30.65521 | -89.31074 | 40895 ft | 506 kts | 83° |
| 2026-04-25 07:41 | 30.66154 | -89.22932 | 40920 ft | 506 kts | 83° |
| 2026-04-25 07:41 | 30.66783 | -89.14781 | 40907 ft | 507 kts | 83° |
| 2026-04-25 07:42 | 30.67406 | -89.06631 | 40900 ft | 507 kts | 83° |
| 2026-04-25 07:42 | 30.68025 | -88.98475 | 40894 ft | 507 kts | 83° |
| 2026-04-25 07:43 | 30.68639 | -88.90317 | 40894 ft | 507 kts | 83° |
| 2026-04-25 07:43 | 30.69247 | -88.82158 | 40903 ft | 507 kts | 83° |
| 2026-04-25 07:44 | 30.69846 | -88.74059 | 40908 ft | 507 kts | 83° |
| 2026-04-25 07:44 | 30.70445 | -88.65902 | 40911 ft | 506 kts | 83° |
| 2026-04-25 07:45 | 30.71037 | -88.57747 | 40914 ft | 506 kts | 83° |
| 2026-04-25 07:45 | 30.71625 | -88.49595 | 40921 ft | 506 kts | 83° |
| 2026-04-25 07:46 | 30.72207 | -88.41449 | 40939 ft | 506 kts | 83° |
| 2026-04-25 07:46 | 30.72780 | -88.33304 | 40932 ft | 506 kts | 83° |
| 2026-04-25 07:47 | 30.73311 | -88.25154 | 40938 ft | 505 kts | 83° |
| 2026-04-25 07:47 | 30.73828 | -88.17011 | 40933 ft | 505 kts | 83° |
| 2026-04-25 07:48 | 30.74344 | -88.08872 | 40928 ft | 505 kts | 83° |
| 2026-04-25 07:48 | 30.74855 | -88.00796 | 40921 ft | 504 kts | 83° |
| 2026-04-25 07:49 | 30.75363 | -87.92675 | 40919 ft | 503 kts | 83° |
| 2026-04-25 07:49 | 30.75865 | -87.84572 | 40924 ft | 502 kts | 83° |
| 2026-04-25 07:50 | 30.76362 | -87.76471 | 40929 ft | 502 kts | 83° |
| 2026-04-25 07:50 | 30.76855 | -87.68380 | 40945 ft | 501 kts | 83° |
| 2026-04-25 07:51 | 30.77345 | -87.60304 | 40937 ft | 501 kts | 83° |
| 2026-04-25 07:51 | 30.77830 | -87.52232 | 40936 ft | 500 kts | 83° |
| 2026-04-25 07:52 | 30.78309 | -87.44176 | 40938 ft | 499 kts | 83° |
| 2026-04-25 07:52 | 30.78783 | -87.36120 | 40947 ft | 499 kts | 83° |
| 2026-04-25 07:53 | 30.79251 | -87.28067 | 40951 ft | 499 kts | 82° |
| 2026-04-25 07:53 | 30.79714 | -87.20019 | 40943 ft | 499 kts | 83° |
| 2026-04-25 07:54 | 30.80172 | -87.11975 | 40943 ft | 498 kts | 83° |
| 2026-04-25 07:54 | 30.80625 | -87.03941 | 40945 ft | 498 kts | 83° |
| 2026-04-25 07:55 | 30.81073 | -86.95907 | 40943 ft | 498 kts | 83° |
| 2026-04-25 07:55 | 30.81517 | -86.87875 | 40945 ft | 497 kts | 82° |
| 2026-04-25 07:56 | 30.81956 | -86.79845 | 40933 ft | 497 kts | 83° |
| 2026-04-25 07:56 | 30.82391 | -86.71818 | 40966 ft | 497 kts | 83° |
| 2026-04-25 07:57 | 30.82627 | -86.63770 | 40972 ft | 499 kts | 88° |
| 2026-04-25 07:57 | 30.82429 | -86.55704 | 40976 ft | 499 kts | 89° |
| 2026-04-25 07:58 | 30.82192 | -86.47641 | 40973 ft | 498 kts | 88° |
| 2026-04-25 07:58 | 30.82001 | -86.39603 | 40963 ft | 496 kts | 88° |
| 2026-04-25 07:59 | 30.81828 | -86.31640 | 40951 ft | 495 kts | 88° |
| 2026-04-25 07:59 | 30.81647 | -86.23592 | 40908 ft | 494 kts | 88° |
| 2026-04-25 08:00 | 30.81462 | -86.15664 | 40902 ft | 493 kts | 88° |
| 2026-04-25 08:00 | 30.80829 | -86.07715 | 40902 ft | 495 kts | 96° |
| 2026-04-25 08:01 | 30.79655 | -85.99824 | 40893 ft | 495 kts | 97° |
| 2026-04-25 08:01 | 30.78450 | -85.91949 | 40917 ft | 494 kts | 97° |
| 2026-04-25 08:02 | 30.77299 | -85.84068 | 40923 ft | 494 kts | 96° |
| 2026-04-25 08:02 | 30.76176 | -85.76185 | 40941 ft | 494 kts | 96° |
| 2026-04-25 08:03 | 30.75053 | -85.68299 | 40955 ft | 495 kts | 96° |
| 2026-04-25 08:03 | 30.73922 | -85.60410 | 40957 ft | 495 kts | 97° |
| 2026-04-25 08:04 | 30.72783 | -85.52512 | 40949 ft | 496 kts | 97° |
| 2026-04-25 08:04 | 30.71638 | -85.44615 | 40929 ft | 496 kts | 97° |
| 2026-04-25 08:05 | 30.70486 | -85.36708 | 40919 ft | 496 kts | 96° |
| 2026-04-25 08:05 | 30.69332 | -85.28816 | 40920 ft | 495 kts | 96° |
| 2026-04-25 08:06 | 30.68176 | -85.20944 | 40930 ft | 494 kts | 96° |
| 2026-04-25 08:06 | 30.67017 | -85.13084 | 40929 ft | 493 kts | 96° |
| 2026-04-25 08:07 | 30.65856 | -85.05245 | 40930 ft | 492 kts | 97° |
| 2026-04-25 08:07 | 30.64692 | -84.97424 | 40931 ft | 491 kts | 97° |
| 2026-04-25 08:08 | 30.63528 | -84.89631 | 40910 ft | 489 kts | 97° |
| 2026-04-25 08:08 | 30.62363 | -84.81868 | 40938 ft | 487 kts | 97° |
| 2026-04-25 08:09 | 30.61198 | -84.74130 | 40936 ft | 486 kts | 97° |
| 2026-04-25 08:09 | 30.60038 | -84.66466 | 40968 ft | 485 kts | 97° |
| 2026-04-25 08:10 | 30.58869 | -84.58764 | 40954 ft | 484 kts | 97° |
| 2026-04-25 08:10 | 30.57696 | -84.51075 | 40952 ft | 483 kts | 97° |
| 2026-04-25 08:11 | 30.56521 | -84.43397 | 40953 ft | 483 kts | 97° |
| 2026-04-25 08:11 | 30.55256 | -84.35745 | 40948 ft | 484 kts | 103° |
| 2026-04-25 08:12 | 30.53305 | -84.28266 | 40977 ft | 485 kts | 107° |
| 2026-04-25 08:12 | 30.51191 | -84.20835 | 40959 ft | 485 kts | 107° |
| 2026-04-25 08:13 | 30.49112 | -84.13395 | 40950 ft | 485 kts | 106° |
| 2026-04-25 08:14 | 30.46061 | -84.02228 | 40955 ft | 484 kts | 106° |
| 2026-04-25 08:14 | 30.44037 | -83.94791 | 40953 ft | 484 kts | 106° |
| 2026-04-25 08:15 | 30.42008 | -83.87365 | 40961 ft | 483 kts | 106° |
| 2026-04-25 08:15 | 30.39976 | -83.79949 | 40961 ft | 483 kts | 106° |
| 2026-04-25 08:16 | 30.37954 | -83.72592 | 40961 ft | 482 kts | 106° |
| 2026-04-25 08:16 | 30.35916 | -83.65196 | 40956 ft | 482 kts | 106° |
| 2026-04-25 08:17 | 30.33877 | -83.57812 | 40960 ft | 481 kts | 106° |
| 2026-04-25 08:17 | 30.31835 | -83.50437 | 40974 ft | 481 kts | 107° |
| 2026-04-25 08:18 | 30.29791 | -83.43074 | 40958 ft | 480 kts | 107° |
| 2026-04-25 08:18 | 30.27747 | -83.35727 | 40969 ft | 479 kts | 107° |
| 2026-04-25 08:19 | 30.25704 | -83.28401 | 40971 ft | 478 kts | 107° |
| 2026-04-25 08:19 | 30.23659 | -83.21086 | 40966 ft | 478 kts | 107° |
| 2026-04-25 08:20 | 30.21612 | -83.13781 | 40972 ft | 477 kts | 107° |
| 2026-04-25 08:20 | 30.19563 | -83.06487 | 40972 ft | 477 kts | 107° |
| 2026-04-25 08:21 | 30.17509 | -82.99195 | 40971 ft | 477 kts | 107° |
| 2026-04-25 08:21 | 30.15454 | -82.91914 | 40982 ft | 477 kts | 107° |
| 2026-04-25 08:22 | 30.13406 | -82.84674 | 40989 ft | 477 kts | 107° |
| 2026-04-25 08:22 | 30.11339 | -82.77383 | 40983 ft | 478 kts | 107° |
| 2026-04-25 08:23 | 30.09266 | -82.70090 | 40980 ft | 478 kts | 107° |
| 2026-04-25 08:23 | 30.07187 | -82.62793 | 40976 ft | 479 kts | 107° |
| 2026-04-25 08:24 | 30.05101 | -82.55491 | 40977 ft | 479 kts | 107° |
| 2026-04-25 08:24 | 30.04054 | -82.51831 | 40669 ft | 484 kts | 107° |
| 2026-04-25 08:24 | 30.02994 | -82.48128 | 40065 ft | 485 kts | 107° |
| 2026-04-25 08:24 | 30.01938 | -82.44448 | 39389 ft | 482 kts | 107° |
| 2026-04-25 08:25 | 30.00889 | -82.40794 | 38690 ft | 479 kts | 108° |
| 2026-04-25 08:25 | 29.99840 | -82.37147 | 37825 ft | 478 kts | 107° |
| 2026-04-25 08:25 | 29.98795 | -82.33517 | 37037 ft | 476 kts | 107° |
| 2026-04-25 08:25 | 29.97754 | -82.29903 | 36240 ft | 474 kts | 107° |
| 2026-04-25 08:26 | 29.96715 | -82.26303 | 35381 ft | 473 kts | 107° |
| 2026-04-25 08:26 | 29.95675 | -82.22701 | 34465 ft | 474 kts | 107° |
| 2026-04-25 08:26 | 29.94632 | -82.19092 | 33450 ft | 475 kts | 107° |
| 2026-04-25 08:26 | 29.93938 | -82.16695 | 32724 ft | 476 kts | 107° |
| 2026-04-25 08:27 | 29.92888 | -82.13069 | 31704 ft | 477 kts | 107° |
| 2026-04-25 08:27 | 29.91844 | -82.09469 | 30988 ft | 470 kts | 107° |
| 2026-04-25 08:27 | 29.90812 | -82.05916 | 30251 ft | 466 kts | 107° |
| 2026-04-25 08:27 | 29.89788 | -82.02393 | 29437 ft | 461 kts | 107° |
| 2026-04-25 08:28 | 29.88449 | -81.97794 | 28420 ft | 453 kts | 108° |
| 2026-04-25 08:28 | 29.87774 | -81.95478 | 27895 ft | 449 kts | 108° |
| 2026-04-25 08:28 | 29.86787 | -81.92092 | 27156 ft | 444 kts | 108° |
| 2026-04-25 08:28 | 29.85808 | -81.88739 | 26437 ft | 439 kts | 108° |
| 2026-04-25 08:29 | 29.84839 | -81.85422 | 25730 ft | 435 kts | 108° |
| 2026-04-25 08:29 | 29.83878 | -81.82138 | 25041 ft | 431 kts | 108° |
| 2026-04-25 08:29 | 29.82923 | -81.78875 | 24340 ft | 428 kts | 108° |
| 2026-04-25 08:29 | 29.81975 | -81.75641 | 23638 ft | 425 kts | 108° |
| 2026-04-25 08:30 | 29.81030 | -81.72419 | 22838 ft | 423 kts | 108° |
| 2026-04-25 08:30 | 29.80093 | -81.69231 | 22110 ft | 418 kts | 108° |
| 2026-04-25 08:30 | 29.79165 | -81.66077 | 21409 ft | 414 kts | 108° |
| 2026-04-25 08:30 | 29.78247 | -81.62959 | 20744 ft | 409 kts | 108° |
| 2026-04-25 08:31 | 29.77337 | -81.59868 | 20074 ft | 405 kts | 108° |
| 2026-04-25 08:31 | 29.76435 | -81.56812 | 19419 ft | 402 kts | 108° |
| 2026-04-25 08:31 | 29.75539 | -81.53776 | 18763 ft | 399 kts | 108° |
| 2026-04-25 08:31 | 29.74649 | -81.50762 | 18071 ft | 397 kts | 107° |
| 2026-04-25 08:32 | 29.73762 | -81.47761 | 17367 ft | 394 kts | 108° |
| 2026-04-25 08:32 | 29.72882 | -81.44789 | 16703 ft | 390 kts | 108° |
| 2026-04-25 08:32 | 29.72024 | -81.41893 | 16089 ft | 386 kts | 108° |
| 2026-04-25 08:32 | 29.71163 | -81.38988 | 15464 ft | 382 kts | 108° |
| 2026-04-25 08:33 | 29.70310 | -81.36113 | 14844 ft | 378 kts | 108° |
| 2026-04-25 08:33 | 29.69465 | -81.33264 | 14224 ft | 375 kts | 108° |
| 2026-04-25 08:33 | 29.68624 | -81.30436 | 13562 ft | 373 kts | 108° |
| 2026-04-25 08:33 | 29.67788 | -81.27626 | 12878 ft | 369 kts | 108° |
| 2026-04-25 08:34 | 29.66758 | -81.24946 | 12301 ft | 365 kts | 123° |
| 2026-04-25 08:34 | 29.65028 | -81.22856 | 12121 ft | 362 kts | 143° |
| 2026-04-25 08:34 | 29.62848 | -81.21470 | 12038 ft | 359 kts | 159° |
| 2026-04-25 08:34 | 29.60521 | -81.20431 | 12010 ft | 358 kts | 160° |
| 2026-04-25 08:35 | 29.58195 | -81.19413 | 11990 ft | 357 kts | 160° |
| 2026-04-25 08:35 | 29.55882 | -81.18373 | 11997 ft | 357 kts | 159° |
| 2026-04-25 08:35 | 29.53573 | -81.17313 | 11995 ft | 357 kts | 159° |
| 2026-04-25 08:35 | 29.51280 | -81.16206 | 11828 ft | 359 kts | 154° |
| 2026-04-25 08:36 | 29.49317 | -81.14435 | 11333 ft | 360 kts | 131° |
| 2026-04-25 08:36 | 29.47958 | -81.12080 | 10893 ft | 351 kts | 115° |
| 2026-04-25 08:36 | 29.47064 | -81.09518 | 10465 ft | 342 kts | 109° |
| 2026-04-25 08:36 | 29.46331 | -81.06954 | 10036 ft | 335 kts | 107° |
| 2026-04-25 08:37 | 29.45642 | -81.04456 | 9923 ft | 318 kts | 107° |
| 2026-04-25 08:37 | 29.44987 | -81.02136 | 9859 ft | 294 kts | 108° |
| 2026-04-25 08:37 | 29.44351 | -80.99946 | 9555 ft | 287 kts | 108° |
| 2026-04-25 08:37 | 29.43715 | -80.97795 | 9188 ft | 280 kts | 108° |
| 2026-04-25 08:38 | 29.43087 | -80.95693 | 8568 ft | 279 kts | 108° |
| 2026-04-25 08:38 | 29.42452 | -80.93588 | 7956 ft | 278 kts | 109° |
| 2026-04-25 08:38 | 29.41822 | -80.91505 | 7457 ft | 274 kts | 109° |
| 2026-04-25 08:38 | 29.41197 | -80.89445 | 7065 ft | 275 kts | 108° |
| 2026-04-25 08:39 | 29.40564 | -80.87355 | 6717 ft | 278 kts | 107° |
| 2026-04-25 08:39 | 29.39783 | -80.85343 | 6373 ft | 277 kts | 127° |
| 2026-04-25 08:39 | 29.38286 | -80.84116 | 6312 ft | 258 kts | 159° |
| 2026-04-25 08:39 | 29.36627 | -80.83534 | 6168 ft | 242 kts | 167° |
| 2026-04-25 08:40 | 29.35035 | -80.83166 | 6051 ft | 226 kts | 172° |
| 2026-04-25 08:40 | 29.33530 | -80.82937 | 5927 ft | 211 kts | 173° |
| 2026-04-25 08:40 | 29.32138 | -80.82762 | 5811 ft | 192 kts | 176° |
| 2026-04-25 08:40 | 29.30827 | -80.82681 | 5504 ft | 186 kts | 180° |
| 2026-04-25 08:41 | 29.29531 | -80.82714 | 5133 ft | 188 kts | 184° |
| 2026-04-25 08:41 | 29.28282 | -80.82902 | 4980 ft | 174 kts | 204° |
| 2026-04-25 08:41 | 29.27294 | -80.83586 | 4806 ft | 161 kts | 225° |
| 2026-04-25 08:41 | 29.26721 | -80.84595 | 4601 ft | 145 kts | 248° |
| 2026-04-25 08:42 | 29.26291 | -80.85569 | 4396 ft | 130 kts | 245° |
| 2026-04-25 08:42 | 29.25888 | -80.86488 | 4028 ft | 127 kts | 246° |
| 2026-04-25 08:42 | 29.25512 | -80.87377 | 3704 ft | 123 kts | 248° |
| 2026-04-25 08:42 | 29.25147 | -80.88261 | 3365 ft | 121 kts | 249° |
| 2026-04-25 08:43 | 29.24789 | -80.89139 | 2990 ft | 121 kts | 246° |
| 2026-04-25 08:43 | 29.24440 | -80.89999 | 2791 ft | 119 kts | 246° |
| 2026-04-25 08:43 | 29.24087 | -80.90869 | 2636 ft | 121 kts | 246° |
| 2026-04-25 08:43 | 29.23736 | -80.91738 | 2467 ft | 121 kts | 245° |
| 2026-04-25 08:44 | 29.23380 | -80.92619 | 2310 ft | 122 kts | 244° |
| 2026-04-25 08:44 | 29.23024 | -80.93498 | 2139 ft | 121 kts | 244° |
| 2026-04-25 08:44 | 29.22674 | -80.94364 | 1989 ft | 119 kts | 243° |
| 2026-04-25 08:44 | 29.22325 | -80.95226 | 1833 ft | 119 kts | 244° |
| 2026-04-25 08:45 | 29.21981 | -80.96081 | 1680 ft | 117 kts | 243° |
| 2026-04-25 08:45 | 29.21639 | -80.96927 | 1522 ft | 117 kts | 243° |
| 2026-04-25 08:45 | 29.21295 | -80.97779 | 1370 ft | 118 kts | 243° |
| 2026-04-25 08:45 | 29.20950 | -80.98633 | 1215 ft | 117 kts | 243° |
| 2026-04-25 08:46 | 29.20608 | -80.99479 | 1062 ft | 117 kts | 243° |
| 2026-04-25 08:46 | 29.20267 | -81.00325 | 900 ft | 118 kts | 243° |
| 2026-04-25 08:46 | 29.19926 | -81.01168 | 750 ft | 118 kts | 243° |
| 2026-04-25 08:46 | 29.19583 | -81.02020 | 603 ft | 118 kts | 244° |
| 2026-04-25 08:47 | 29.19238 | -81.02877 | 454 ft | 117 kts | 243° |
| 2026-04-25 08:47 | 29.18894 | -81.03728 | 302 ft | 117 kts | 244° |
| 2026-04-25 08:47 | 29.18546 | -81.04595 | 127 ft | 120 kts | 244° |
| 2026-04-25 08:47 | 29.18207 | -81.05431 | 42 ft | 107 kts | 244° |
| 2026-04-25 08:48 | 29.17955 | -81.06055 | 43 ft | 72 kts | 244° |
| 2026-04-25 08:48 | 29.17837 | -81.06374 | 39 ft | 27 kts | 271° |
| 2026-04-25 08:48 | 29.17889 | -81.06475 | 39 ft | 0 kts | 339° |
| 2026-04-25 08:50 | 29.17890 | -81.06475 | 39 ft | 0 kts | 339° |
| 2026-04-25 08:50 | 29.17904 | -81.06478 | 39 ft | 4 kts | 353° |
| 2026-04-25 08:50 | 29.17945 | -81.06451 | 39 ft | 10 kts | 55° |
| 2026-04-25 08:51 | 29.17981 | -81.06363 | 41 ft | 14 kts | 65° |
| 2026-04-25 08:51 | 29.18030 | -81.06241 | 42 ft | 19 kts | 65° |
| 2026-04-25 08:51 | 29.18134 | -81.06169 | 41 ft | 21 kts | 334° |
| 2026-04-25 08:51 | 29.18234 | -81.06224 | 42 ft | 10 kts | 338° |
| 2026-04-25 08:52 | 29.18301 | -81.06218 | 42 ft | 10 kts | 24° |
| 2026-04-25 08:52 | 29.18330 | -81.06192 | 42 ft | 2 kts | 38° |
| 2026-04-25 08:52 | 29.18333 | -81.06179 | 43 ft | 2 kts | 95° |
| 2026-04-25 08:52 | 29.18333 | -81.06172 | 43 ft | 0 kts | 90° |